sensor_id;sensor_type;location;lat;lon;timestamp;temperature;humidity
18950;DHT22;9608;49.288;8.130;2023-06-10T00:02:22;21.80;99.90
18950;DHT22;9608;49.288;8.130;2023-06-10T00:04:49;21.80;99.90
18950;DHT22;9608;49.288;8.130;2023-06-10T00:07:17;21.80;99.90
18950;DHT22;9608;49.288;8.130;2023-06-10T00:09:44;21.70;99.90
18950;DHT22;9608;49.288;8.130;2023-06-10T00:12:11;21.60;99.90
18950;DHT22;9608;49.288;8.130;2023-06-10T00:14:39;21.50;99.90
18950;DHT22;9608;49.288;8.130;2023-06-10T00:17:06;21.50;99.90
18950;DHT22;9608;49.288;8.130;2023-06-10T00:19:35;21.50;99.90
18950;DHT22;9608;49.288;8.130;2023-06-10T00:22:02;21.60;99.90
18950;DHT22;9608;49.288;8.130;2023-06-10T00:24:31;21.60;99.90
18950;DHT22;9608;49.288;8.130;2023-06-10T00:26:58;21.60;99.90
18950;DHT22;9608;49.288;8.130;2023-06-10T00:29:25;21.60;99.90
18950;DHT22;9608;49.288;8.130;2023-06-10T00:31:51;21.60;99.90
18950;DHT22;9608;49.288;8.130;2023-06-10T00:34:22;21.50;99.90
18950;DHT22;9608;49.288;8.130;2023-06-10T00:36:49;21.50;99.90
18950;DHT22;9608;49.288;8.130;2023-06-10T00:39:16;21.40;99.90
18950;DHT22;9608;49.288;8.130;2023-06-10T00:41:44;21.40;99.90
18950;DHT22;9608;49.288;8.130;2023-06-10T00:44:11;21.20;99.90
18950;DHT22;9608;49.288;8.130;2023-06-10T00:46:37;21.20;99.90
18950;DHT22;9608;49.288;8.130;2023-06-10T00:49:04;21.20;99.90
18950;DHT22;9608;49.288;8.130;2023-06-10T00:51:31;21.20;99.90
18950;DHT22;9608;49.288;8.130;2023-06-10T00:53:58;21.10;99.90
18950;DHT22;9608;49.288;8.130;2023-06-10T00:56:25;21.00;99.90
18950;DHT22;9608;49.288;8.130;2023-06-10T00:58:53;21.00;99.90
18950;DHT22;9608;49.288;8.130;2023-06-10T01:01:20;21.00;99.90
18950;DHT22;9608;49.288;8.130;2023-06-10T01:03:47;21.00;99.90
18950;DHT22;9608;49.288;8.130;2023-06-10T01:06:21;21.10;99.90
18950;DHT22;9608;49.288;8.130;2023-06-10T01:08:56;21.00;99.90
18950;DHT22;9608;49.288;8.130;2023-06-10T01:11:28;20.90;99.90
18950;DHT22;9608;49.288;8.130;2023-06-10T01:14:00;20.90;99.90
18950;DHT22;9608;49.288;8.130;2023-06-10T01:16:27;20.90;99.90
18950;DHT22;9608;49.288;8.130;2023-06-10T01:18:54;20.90;99.90
18950;DHT22;9608;49.288;8.130;2023-06-10T01:21:23;20.90;99.90
18950;DHT22;9608;49.288;8.130;2023-06-10T01:23:52;20.90;99.90
18950;DHT22;9608;49.288;8.130;2023-06-10T01:26:24;20.90;99.90
18950;DHT22;9608;49.288;8.130;2023-06-10T01:28:57;20.80;99.90
18950;DHT22;9608;49.288;8.130;2023-06-10T01:31:30;20.80;99.90
18950;DHT22;9608;49.288;8.130;2023-06-10T01:34:03;20.70;99.90
18950;DHT22;9608;49.288;8.130;2023-06-10T01:36:35;20.60;99.90
18950;DHT22;9608;49.288;8.130;2023-06-10T01:39:04;20.70;99.90
18950;DHT22;9608;49.288;8.130;2023-06-10T01:41:32;20.80;99.90
18950;DHT22;9608;49.288;8.130;2023-06-10T01:43:59;20.80;99.90
18950;DHT22;9608;49.288;8.130;2023-06-10T01:46:25;20.80;99.90
18950;DHT22;9608;49.288;8.130;2023-06-10T01:48:52;20.60;99.90
18950;DHT22;9608;49.288;8.130;2023-06-10T01:51:19;20.50;99.90
18950;DHT22;9608;49.288;8.130;2023-06-10T01:53:47;20.50;99.90
18950;DHT22;9608;49.288;8.130;2023-06-10T01:56:14;20.50;99.90
18950;DHT22;9608;49.288;8.130;2023-06-10T01:58:43;20.50;99.90
18950;DHT22;9608;49.288;8.130;2023-06-10T02:01:10;20.60;99.90
18950;DHT22;9608;49.288;8.130;2023-06-10T02:03:37;20.60;99.90
18950;DHT22;9608;49.288;8.130;2023-06-10T02:06:04;20.50;99.90
18950;DHT22;9608;49.288;8.130;2023-06-10T02:08:30;20.40;99.90
18950;DHT22;9608;49.288;8.130;2023-06-10T02:10:58;20.30;99.90
18950;DHT22;9608;49.288;8.130;2023-06-10T02:13:25;20.20;99.90
18950;DHT22;9608;49.288;8.130;2023-06-10T02:15:52;20.10;99.90
18950;DHT22;9608;49.288;8.130;2023-06-10T02:18:19;20.00;99.90
18950;DHT22;9608;49.288;8.130;2023-06-10T02:20:47;19.90;99.90
18950;DHT22;9608;49.288;8.130;2023-06-10T02:23:14;19.90;99.90
18950;DHT22;9608;49.288;8.130;2023-06-10T02:25:40;19.90;99.90
18950;DHT22;9608;49.288;8.130;2023-06-10T02:28:09;19.80;99.90
18950;DHT22;9608;49.288;8.130;2023-06-10T02:30:38;19.80;99.90
18950;DHT22;9608;49.288;8.130;2023-06-10T02:33:05;19.80;99.90
18950;DHT22;9608;49.288;8.130;2023-06-10T02:35:35;19.70;99.90
18950;DHT22;9608;49.288;8.130;2023-06-10T02:38:02;19.70;99.90
18950;DHT22;9608;49.288;8.130;2023-06-10T02:40:29;19.60;99.90
18950;DHT22;9608;49.288;8.130;2023-06-10T02:42:56;19.60;99.90
18950;DHT22;9608;49.288;8.130;2023-06-10T02:45:24;19.50;99.90
18950;DHT22;9608;49.288;8.130;2023-06-10T02:47:51;19.50;99.90
18950;DHT22;9608;49.288;8.130;2023-06-10T02:50:18;19.50;99.90
18950;DHT22;9608;49.288;8.130;2023-06-10T02:52:45;19.40;99.90
18950;DHT22;9608;49.288;8.130;2023-06-10T02:55:11;19.40;99.90
18950;DHT22;9608;49.288;8.130;2023-06-10T02:57:38;19.40;99.90
18950;DHT22;9608;49.288;8.130;2023-06-10T03:00:06;19.30;99.90
18950;DHT22;9608;49.288;8.130;2023-06-10T03:02:37;19.30;99.90
18950;DHT22;9608;49.288;8.130;2023-06-10T03:05:05;19.30;99.90
18950;DHT22;9608;49.288;8.130;2023-06-10T03:07:35;19.30;99.90
18950;DHT22;9608;49.288;8.130;2023-06-10T03:10:02;19.30;99.90
18950;DHT22;9608;49.288;8.130;2023-06-10T03:12:29;19.30;99.90
18950;DHT22;9608;49.288;8.130;2023-06-10T03:14:55;19.30;99.90
18950;DHT22;9608;49.288;8.130;2023-06-10T03:17:22;19.30;99.90
18950;DHT22;9608;49.288;8.130;2023-06-10T03:19:50;19.30;99.90
18950;DHT22;9608;49.288;8.130;2023-06-10T03:22:17;19.30;99.90
18950;DHT22;9608;49.288;8.130;2023-06-10T03:24:44;19.30;99.90
18950;DHT22;9608;49.288;8.130;2023-06-10T03:27:12;19.30;99.90
18950;DHT22;9608;49.288;8.130;2023-06-10T03:29:40;19.40;99.90
18950;DHT22;9608;49.288;8.130;2023-06-10T03:32:07;19.40;99.90
18950;DHT22;9608;49.288;8.130;2023-06-10T03:34:34;19.50;99.90
18950;DHT22;9608;49.288;8.130;2023-06-10T03:37:02;19.50;99.90
18950;DHT22;9608;49.288;8.130;2023-06-10T03:39:29;19.60;99.90
18950;DHT22;9608;49.288;8.130;2023-06-10T03:41:56;19.70;99.90
18950;DHT22;9608;49.288;8.130;2023-06-10T03:44:24;19.80;99.90
18950;DHT22;9608;49.288;8.130;2023-06-10T03:46:51;20.00;99.90
18950;DHT22;9608;49.288;8.130;2023-06-10T03:49:18;20.20;99.90
18950;DHT22;9608;49.288;8.130;2023-06-10T03:51:45;20.30;99.90
18950;DHT22;9608;49.288;8.130;2023-06-10T03:54:13;20.40;99.90
18950;DHT22;9608;49.288;8.130;2023-06-10T03:56:39;20.60;99.90
18950;DHT22;9608;49.288;8.130;2023-06-10T03:59:06;20.80;99.90
18950;DHT22;9608;49.288;8.130;2023-06-10T04:01:33;21.00;99.90
18950;DHT22;9608;49.288;8.130;2023-06-10T04:04:00;21.10;99.90
18950;DHT22;9608;49.288;8.130;2023-06-10T04:06:27;21.30;99.90
18950;DHT22;9608;49.288;8.130;2023-06-10T04:08:54;21.40;99.90
18950;DHT22;9608;49.288;8.130;2023-06-10T04:11:23;21.60;99.90
18950;DHT22;9608;49.288;8.130;2023-06-10T04:13:50;21.90;99.90
18950;DHT22;9608;49.288;8.130;2023-06-10T04:16:17;22.00;99.90
18950;DHT22;9608;49.288;8.130;2023-06-10T04:18:43;22.20;99.90
18950;DHT22;9608;49.288;8.130;2023-06-10T04:21:10;22.30;99.90
18950;DHT22;9608;49.288;8.130;2023-06-10T04:23:37;22.40;99.90
18950;DHT22;9608;49.288;8.130;2023-06-10T04:26:04;22.60;99.90
18950;DHT22;9608;49.288;8.130;2023-06-10T04:28:32;22.80;99.90
18950;DHT22;9608;49.288;8.130;2023-06-10T04:30:59;22.90;99.90
18950;DHT22;9608;49.288;8.130;2023-06-10T04:33:27;23.20;99.90
18950;DHT22;9608;49.288;8.130;2023-06-10T04:35:53;23.30;99.90
18950;DHT22;9608;49.288;8.130;2023-06-10T04:38:20;23.50;99.90
18950;DHT22;9608;49.288;8.130;2023-06-10T04:40:47;24.00;99.90
18950;DHT22;9608;49.288;8.130;2023-06-10T04:43:13;24.10;99.90
18950;DHT22;9608;49.288;8.130;2023-06-10T04:45:42;24.30;99.90
18950;DHT22;9608;49.288;8.130;2023-06-10T04:48:10;24.50;99.90
18950;DHT22;9608;49.288;8.130;2023-06-10T04:50:36;24.60;99.90
18950;DHT22;9608;49.288;8.130;2023-06-10T04:53:04;24.90;99.90
18950;DHT22;9608;49.288;8.130;2023-06-10T04:55:31;24.70;99.90
18950;DHT22;9608;49.288;8.130;2023-06-10T04:57:58;24.50;99.90
18950;DHT22;9608;49.288;8.130;2023-06-10T05:00:25;24.50;99.90
18950;DHT22;9608;49.288;8.130;2023-06-10T05:02:53;24.60;99.90
18950;DHT22;9608;49.288;8.130;2023-06-10T05:05:21;24.60;99.90
18950;DHT22;9608;49.288;8.130;2023-06-10T05:07:48;24.70;99.90
18950;DHT22;9608;49.288;8.130;2023-06-10T05:10:15;24.80;99.90
18950;DHT22;9608;49.288;8.130;2023-06-10T05:12:42;24.70;99.90
18950;DHT22;9608;49.288;8.130;2023-06-10T05:15:09;24.80;99.90
18950;DHT22;9608;49.288;8.130;2023-06-10T05:17:36;24.90;99.90
18950;DHT22;9608;49.288;8.130;2023-06-10T05:20:05;24.90;99.90
18950;DHT22;9608;49.288;8.130;2023-06-10T05:22:33;24.80;99.90
18950;DHT22;9608;49.288;8.130;2023-06-10T05:24:59;25.00;99.90
18950;DHT22;9608;49.288;8.130;2023-06-10T05:27:26;25.10;99.90
18950;DHT22;9608;49.288;8.130;2023-06-10T05:29:53;25.00;99.90
18950;DHT22;9608;49.288;8.130;2023-06-10T05:32:19;25.00;99.90
18950;DHT22;9608;49.288;8.130;2023-06-10T05:34:46;24.90;99.90
18950;DHT22;9608;49.288;8.130;2023-06-10T05:37:14;25.00;99.90
18950;DHT22;9608;49.288;8.130;2023-06-10T05:39:41;24.90;99.90
18950;DHT22;9608;49.288;8.130;2023-06-10T05:42:08;24.80;99.90
18950;DHT22;9608;49.288;8.130;2023-06-10T05:44:35;24.70;99.90
18950;DHT22;9608;49.288;8.130;2023-06-10T05:47:03;24.70;99.90
18950;DHT22;9608;49.288;8.130;2023-06-10T05:49:29;24.70;99.90
18950;DHT22;9608;49.288;8.130;2023-06-10T05:51:56;24.80;99.90
18950;DHT22;9608;49.288;8.130;2023-06-10T05:54:25;24.50;99.90
18950;DHT22;9608;49.288;8.130;2023-06-10T05:56:52;24.50;99.90
18950;DHT22;9608;49.288;8.130;2023-06-10T05:59:19;24.50;99.90
18950;DHT22;9608;49.288;8.130;2023-06-10T06:01:48;24.30;99.90
18950;DHT22;9608;49.288;8.130;2023-06-10T06:04:15;24.30;99.90
18950;DHT22;9608;49.288;8.130;2023-06-10T06:06:41;24.30;99.90
18950;DHT22;9608;49.288;8.130;2023-06-10T06:09:08;24.40;99.90
18950;DHT22;9608;49.288;8.130;2023-06-10T06:11:36;24.20;99.90
18950;DHT22;9608;49.288;8.130;2023-06-10T06:14:03;24.00;99.90
18950;DHT22;9608;49.288;8.130;2023-06-10T06:16:29;23.80;99.90
18950;DHT22;9608;49.288;8.130;2023-06-10T06:18:56;24.00;99.90
18950;DHT22;9608;49.288;8.130;2023-06-10T06:21:23;24.00;99.90
18950;DHT22;9608;49.288;8.130;2023-06-10T06:23:50;24.20;99.90
18950;DHT22;9608;49.288;8.130;2023-06-10T06:26:17;24.20;99.90
18950;DHT22;9608;49.288;8.130;2023-06-10T06:28:45;24.10;99.90
18950;DHT22;9608;49.288;8.130;2023-06-10T06:31:11;24.00;99.90
18950;DHT22;9608;49.288;8.130;2023-06-10T06:33:38;24.00;99.90
18950;DHT22;9608;49.288;8.130;2023-06-10T06:36:05;24.00;99.90
18950;DHT22;9608;49.288;8.130;2023-06-10T06:38:32;24.00;99.90
18950;DHT22;9608;49.288;8.130;2023-06-10T06:40:59;24.00;99.90
18950;DHT22;9608;49.288;8.130;2023-06-10T06:43:28;23.80;99.90
18950;DHT22;9608;49.288;8.130;2023-06-10T06:45:56;23.80;99.90
18950;DHT22;9608;49.288;8.130;2023-06-10T06:48:23;23.80;99.90
18950;DHT22;9608;49.288;8.130;2023-06-10T06:50:50;23.70;99.90
18950;DHT22;9608;49.288;8.130;2023-06-10T06:53:16;23.80;99.90
18950;DHT22;9608;49.288;8.130;2023-06-10T06:55:43;24.00;99.90
18950;DHT22;9608;49.288;8.130;2023-06-10T06:58:10;23.60;99.90
18950;DHT22;9608;49.288;8.130;2023-06-10T07:00:36;23.50;99.90
18950;DHT22;9608;49.288;8.130;2023-06-10T07:03:05;23.60;99.90
18950;DHT22;9608;49.288;8.130;2023-06-10T07:05:31;23.80;99.90
18950;DHT22;9608;49.288;8.130;2023-06-10T07:07:58;23.90;99.90
18950;DHT22;9608;49.288;8.130;2023-06-10T07:10:25;23.90;99.90
18950;DHT22;9608;49.288;8.130;2023-06-10T07:12:52;23.70;99.90
18950;DHT22;9608;49.288;8.130;2023-06-10T07:15:19;23.90;99.90
18950;DHT22;9608;49.288;8.130;2023-06-10T07:17:46;23.80;99.90
18950;DHT22;9608;49.288;8.130;2023-06-10T07:20:14;24.10;99.90
18950;DHT22;9608;49.288;8.130;2023-06-10T07:22:41;24.10;99.90
18950;DHT22;9608;49.288;8.130;2023-06-10T07:25:08;24.20;99.90
18950;DHT22;9608;49.288;8.130;2023-06-10T07:27:35;24.10;99.90
18950;DHT22;9608;49.288;8.130;2023-06-10T07:30:02;24.20;99.90
18950;DHT22;9608;49.288;8.130;2023-06-10T07:32:30;24.20;99.90
18950;DHT22;9608;49.288;8.130;2023-06-10T07:34:57;24.10;99.90
18950;DHT22;9608;49.288;8.130;2023-06-10T07:37:25;23.90;99.90
18950;DHT22;9608;49.288;8.130;2023-06-10T07:39:51;24.20;99.90
18950;DHT22;9608;49.288;8.130;2023-06-10T07:42:18;24.50;99.90
18950;DHT22;9608;49.288;8.130;2023-06-10T07:44:45;24.60;99.90
18950;DHT22;9608;49.288;8.130;2023-06-10T07:47:12;24.50;99.90
18950;DHT22;9608;49.288;8.130;2023-06-10T07:49:38;24.50;99.90
18950;DHT22;9608;49.288;8.130;2023-06-10T07:52:07;24.50;99.90
18950;DHT22;9608;49.288;8.130;2023-06-10T07:54:35;24.60;99.90
18950;DHT22;9608;49.288;8.130;2023-06-10T07:57:02;24.30;99.90
18950;DHT22;9608;49.288;8.130;2023-06-10T07:59:29;24.40;99.90
18950;DHT22;9608;49.288;8.130;2023-06-10T08:01:56;24.60;99.90
18950;DHT22;9608;49.288;8.130;2023-06-10T08:04:22;24.70;99.90
18950;DHT22;9608;49.288;8.130;2023-06-10T08:06:49;24.70;99.90
18950;DHT22;9608;49.288;8.130;2023-06-10T08:09:16;25.10;99.90
18950;DHT22;9608;49.288;8.130;2023-06-10T08:11:46;25.40;99.90
18950;DHT22;9608;49.288;8.130;2023-06-10T08:14:13;25.30;99.90
18950;DHT22;9608;49.288;8.130;2023-06-10T08:16:40;25.60;99.90
18950;DHT22;9608;49.288;8.130;2023-06-10T08:19:06;26.00;99.90
18950;DHT22;9608;49.288;8.130;2023-06-10T08:21:34;26.30;99.90
18950;DHT22;9608;49.288;8.130;2023-06-10T08:24:02;26.10;99.90
18950;DHT22;9608;49.288;8.130;2023-06-10T08:26:29;26.00;99.90
18950;DHT22;9608;49.288;8.130;2023-06-10T08:28:57;25.80;99.90
18950;DHT22;9608;49.288;8.130;2023-06-10T08:31:24;25.90;99.90
18950;DHT22;9608;49.288;8.130;2023-06-10T08:33:50;26.00;99.90
18950;DHT22;9608;49.288;8.130;2023-06-10T08:36:17;26.30;99.90
18950;DHT22;9608;49.288;8.130;2023-06-10T08:38:44;26.10;99.90
18950;DHT22;9608;49.288;8.130;2023-06-10T08:41:12;25.90;99.90
18950;DHT22;9608;49.288;8.130;2023-06-10T08:43:44;25.80;99.90
18950;DHT22;9608;49.288;8.130;2023-06-10T08:46:14;25.90;99.90
18950;DHT22;9608;49.288;8.130;2023-06-10T08:48:42;25.80;99.90
18950;DHT22;9608;49.288;8.130;2023-06-10T08:51:10;25.90;99.90
18950;DHT22;9608;49.288;8.130;2023-06-10T08:53:41;26.10;99.90
18950;DHT22;9608;49.288;8.130;2023-06-10T08:56:12;26.40;99.90
18950;DHT22;9608;49.288;8.130;2023-06-10T08:58:39;26.50;99.90
18950;DHT22;9608;49.288;8.130;2023-06-10T09:01:07;26.90;99.90
18950;DHT22;9608;49.288;8.130;2023-06-10T09:03:36;27.30;99.90
18950;DHT22;9608;49.288;8.130;2023-06-10T09:06:05;27.50;99.90
18950;DHT22;9608;49.288;8.130;2023-06-10T09:08:33;27.20;99.90
18950;DHT22;9608;49.288;8.130;2023-06-10T09:11:01;27.30;99.90
18950;DHT22;9608;49.288;8.130;2023-06-10T09:13:27;27.20;99.90
18950;DHT22;9608;49.288;8.130;2023-06-10T09:15:54;27.40;99.90
18950;DHT22;9608;49.288;8.130;2023-06-10T09:18:22;27.70;99.90
18950;DHT22;9608;49.288;8.130;2023-06-10T09:20:50;27.90;99.90
18950;DHT22;9608;49.288;8.130;2023-06-10T09:23:17;27.90;99.90
18950;DHT22;9608;49.288;8.130;2023-06-10T09:25:44;27.60;99.90
18950;DHT22;9608;49.288;8.130;2023-06-10T09:28:14;27.50;99.90
18950;DHT22;9608;49.288;8.130;2023-06-10T09:30:41;27.70;99.90
18950;DHT22;9608;49.288;8.130;2023-06-10T09:33:12;27.90;99.90
18950;DHT22;9608;49.288;8.130;2023-06-10T09:35:45;28.20;99.90
18950;DHT22;9608;49.288;8.130;2023-06-10T09:38:15;28.10;99.90
18950;DHT22;9608;49.288;8.130;2023-06-10T09:40:49;28.00;99.90
18950;DHT22;9608;49.288;8.130;2023-06-10T09:43:16;28.10;99.90
18950;DHT22;9608;49.288;8.130;2023-06-10T09:45:43;28.10;99.90
18950;DHT22;9608;49.288;8.130;2023-06-10T09:48:10;28.10;99.90
18950;DHT22;9608;49.288;8.130;2023-06-10T09:50:42;28.30;99.90
18950;DHT22;9608;49.288;8.130;2023-06-10T09:53:09;28.60;99.90
18950;DHT22;9608;49.288;8.130;2023-06-10T09:55:39;28.80;99.90
18950;DHT22;9608;49.288;8.130;2023-06-10T09:58:06;28.50;99.90
18950;DHT22;9608;49.288;8.130;2023-06-10T10:00:33;28.60;99.90
18950;DHT22;9608;49.288;8.130;2023-06-10T10:03:00;28.80;99.90
18950;DHT22;9608;49.288;8.130;2023-06-10T10:05:27;28.70;99.90
18950;DHT22;9608;49.288;8.130;2023-06-10T10:07:55;28.90;99.90
18950;DHT22;9608;49.288;8.130;2023-06-10T10:10:22;29.00;99.90
18950;DHT22;9608;49.288;8.130;2023-06-10T10:12:53;28.50;99.90
18950;DHT22;9608;49.288;8.130;2023-06-10T10:15:21;28.60;99.90
18950;DHT22;9608;49.288;8.130;2023-06-10T10:17:51;28.90;99.90
18950;DHT22;9608;49.288;8.130;2023-06-10T10:20:22;28.90;99.90
18950;DHT22;9608;49.288;8.130;2023-06-10T10:22:52;28.80;99.90
18950;DHT22;9608;49.288;8.130;2023-06-10T10:25:23;29.00;99.90
18950;DHT22;9608;49.288;8.130;2023-06-10T10:27:56;29.30;99.90
18950;DHT22;9608;49.288;8.130;2023-06-10T10:30:25;29.50;99.90
18950;DHT22;9608;49.288;8.130;2023-06-10T10:32:57;29.70;99.90
18950;DHT22;9608;49.288;8.130;2023-06-10T10:35:25;30.10;99.90
18950;DHT22;9608;49.288;8.130;2023-06-10T10:37:53;29.30;99.90
18950;DHT22;9608;49.288;8.130;2023-06-10T10:40:20;28.90;99.90
18950;DHT22;9608;49.288;8.130;2023-06-10T10:42:48;29.10;99.90
18950;DHT22;9608;49.288;8.130;2023-06-10T10:45:17;29.60;99.90
18950;DHT22;9608;49.288;8.130;2023-06-10T10:47:46;30.00;99.50
18950;DHT22;9608;49.288;8.130;2023-06-10T10:50:14;29.70;99.90
18950;DHT22;9608;49.288;8.130;2023-06-10T10:52:52;29.50;99.90
18950;DHT22;9608;49.288;8.130;2023-06-10T10:55:20;29.40;99.90
18950;DHT22;9608;49.288;8.130;2023-06-10T10:57:54;29.40;99.90
18950;DHT22;9608;49.288;8.130;2023-06-10T11:00:30;29.50;99.80
18950;DHT22;9608;49.288;8.130;2023-06-10T11:02:58;29.20;99.90
18950;DHT22;9608;49.288;8.130;2023-06-10T11:05:36;29.60;99.90
18950;DHT22;9608;49.288;8.130;2023-06-10T11:08:04;30.20;99.90
18950;DHT22;9608;49.288;8.130;2023-06-10T11:10:32;30.60;99.30
18950;DHT22;9608;49.288;8.130;2023-06-10T11:12:59;30.00;99.50
18950;DHT22;9608;49.288;8.130;2023-06-10T11:15:28;29.50;99.40
18950;DHT22;9608;49.288;8.130;2023-06-10T11:18:19;29.20;99.90
18950;DHT22;9608;49.288;8.130;2023-06-10T11:20:55;29.00;99.90
18950;DHT22;9608;49.288;8.130;2023-06-10T11:23:35;29.10;99.90
18950;DHT22;9608;49.288;8.130;2023-06-10T11:26:20;29.10;99.90
18950;DHT22;9608;49.288;8.130;2023-06-10T11:29:07;29.30;99.90
18950;DHT22;9608;49.288;8.130;2023-06-10T11:31:41;29.00;99.90
18950;DHT22;9608;49.288;8.130;2023-06-10T11:34:09;28.80;99.90
18950;DHT22;9608;49.288;8.130;2023-06-10T11:36:38;28.90;99.90
18950;DHT22;9608;49.288;8.130;2023-06-10T11:39:08;29.40;99.90
18950;DHT22;9608;49.288;8.130;2023-06-10T11:41:37;29.70;99.90
18950;DHT22;9608;49.288;8.130;2023-06-10T11:44:05;29.00;99.90
18950;DHT22;9608;49.288;8.130;2023-06-10T11:46:33;28.80;99.90
18950;DHT22;9608;49.288;8.130;2023-06-10T11:49:02;29.10;99.90
18950;DHT22;9608;49.288;8.130;2023-06-10T11:51:33;29.50;99.90
18950;DHT22;9608;49.288;8.130;2023-06-10T11:54:00;30.00;99.90
18950;DHT22;9608;49.288;8.130;2023-06-10T11:56:28;30.20;99.40
18950;DHT22;9608;49.288;8.130;2023-06-10T11:58:56;30.40;98.70
18950;DHT22;9608;49.288;8.130;2023-06-10T12:01:24;30.30;98.20
18950;DHT22;9608;49.288;8.130;2023-06-10T12:03:58;30.00;98.30
18950;DHT22;9608;49.288;8.130;2023-06-10T12:06:26;30.00;97.90
18950;DHT22;9608;49.288;8.130;2023-06-10T12:08:54;30.40;97.90
18950;DHT22;9608;49.288;8.130;2023-06-10T12:11:21;30.70;97.30
18950;DHT22;9608;49.288;8.130;2023-06-10T12:13:49;29.90;97.30
18950;DHT22;9608;49.288;8.130;2023-06-10T12:16:16;29.90;96.80
18950;DHT22;9608;49.288;8.130;2023-06-10T12:18:46;29.90;97.30
18950;DHT22;9608;49.288;8.130;2023-06-10T12:21:17;30.20;96.60
18950;DHT22;9608;49.288;8.130;2023-06-10T12:24:03;30.50;97.00
18950;DHT22;9608;49.288;8.130;2023-06-10T12:26:38;29.90;98.10
18950;DHT22;9608;49.288;8.130;2023-06-10T12:29:16;29.60;97.10
18950;DHT22;9608;49.288;8.130;2023-06-10T12:32:01;29.90;96.90
18950;DHT22;9608;49.288;8.130;2023-06-10T12:34:33;30.40;97.20
18950;DHT22;9608;49.288;8.130;2023-06-10T12:37:01;30.80;94.80
18950;DHT22;9608;49.288;8.130;2023-06-10T12:39:30;30.90;94.70
18950;DHT22;9608;49.288;8.130;2023-06-10T12:41:57;30.30;95.10
18950;DHT22;9608;49.288;8.130;2023-06-10T12:44:33;29.70;94.10
18950;DHT22;9608;49.288;8.130;2023-06-10T12:47:01;29.20;94.20
18950;DHT22;9608;49.288;8.130;2023-06-10T12:49:33;29.10;96.20
18950;DHT22;9608;49.288;8.130;2023-06-10T12:52:00;28.90;95.60
18950;DHT22;9608;49.288;8.130;2023-06-10T12:54:27;29.00;95.90
18950;DHT22;9608;49.288;8.130;2023-06-10T12:56:55;29.30;94.40
18950;DHT22;9608;49.288;8.130;2023-06-10T12:59:22;29.40;93.30
18950;DHT22;9608;49.288;8.130;2023-06-10T13:01:50;29.50;94.70
18950;DHT22;9608;49.288;8.130;2023-06-10T13:04:17;29.80;94.90
18950;DHT22;9608;49.288;8.130;2023-06-10T13:06:44;30.00;95.00
18950;DHT22;9608;49.288;8.130;2023-06-10T13:09:12;30.30;94.80
18950;DHT22;9608;49.288;8.130;2023-06-10T13:11:39;30.30;94.60
18950;DHT22;9608;49.288;8.130;2023-06-10T13:14:07;30.50;93.60
18950;DHT22;9608;49.288;8.130;2023-06-10T13:16:34;30.70;92.50
18950;DHT22;9608;49.288;8.130;2023-06-10T13:19:03;30.70;92.20
18950;DHT22;9608;49.288;8.130;2023-06-10T13:21:31;30.80;91.60
18950;DHT22;9608;49.288;8.130;2023-06-10T13:23:58;30.70;91.70
18950;DHT22;9608;49.288;8.130;2023-06-10T13:26:25;31.00;91.90
18950;DHT22;9608;49.288;8.130;2023-06-10T13:28:51;31.10;90.90
18950;DHT22;9608;49.288;8.130;2023-06-10T13:31:19;30.60;92.60
18950;DHT22;9608;49.288;8.130;2023-06-10T13:33:47;30.30;93.80
18950;DHT22;9608;49.288;8.130;2023-06-10T13:36:14;30.20;92.20
18950;DHT22;9608;49.288;8.130;2023-06-10T13:38:40;30.20;91.70
18950;DHT22;9608;49.288;8.130;2023-06-10T13:41:07;30.20;92.50
18950;DHT22;9608;49.288;8.130;2023-06-10T13:43:35;30.30;92.20
18950;DHT22;9608;49.288;8.130;2023-06-10T13:46:02;30.70;91.50
18950;DHT22;9608;49.288;8.130;2023-06-10T13:48:30;30.40;91.30
18950;DHT22;9608;49.288;8.130;2023-06-10T13:50:57;30.50;91.60
18950;DHT22;9608;49.288;8.130;2023-06-10T13:53:25;30.70;91.50
18950;DHT22;9608;49.288;8.130;2023-06-10T13:55:51;30.70;90.70
18950;DHT22;9608;49.288;8.130;2023-06-10T13:58:18;31.00;90.10
18950;DHT22;9608;49.288;8.130;2023-06-10T14:00:45;30.50;91.90
18950;DHT22;9608;49.288;8.130;2023-06-10T14:03:12;30.30;92.30
18950;DHT22;9608;49.288;8.130;2023-06-10T14:05:40;30.00;92.10
18950;DHT22;9608;49.288;8.130;2023-06-10T14:08:07;29.80;91.90
18950;DHT22;9608;49.288;8.130;2023-06-10T14:10:34;29.90;91.90
18950;DHT22;9608;49.288;8.130;2023-06-10T14:13:00;29.70;92.30
18950;DHT22;9608;49.288;8.130;2023-06-10T14:15:30;29.90;92.40
18950;DHT22;9608;49.288;8.130;2023-06-10T14:17:58;29.60;91.00
18950;DHT22;9608;49.288;8.130;2023-06-10T14:20:24;29.70;92.50
18950;DHT22;9608;49.288;8.130;2023-06-10T14:22:53;29.90;92.30
18950;DHT22;9608;49.288;8.130;2023-06-10T14:25:20;30.30;91.90
18950;DHT22;9608;49.288;8.130;2023-06-10T14:27:46;30.40;91.00
18950;DHT22;9608;49.288;8.130;2023-06-10T14:30:14;30.60;90.00
18950;DHT22;9608;49.288;8.130;2023-06-10T14:32:41;30.70;90.50
18950;DHT22;9608;49.288;8.130;2023-06-10T14:35:08;31.20;88.70
18950;DHT22;9608;49.288;8.130;2023-06-10T14:37:34;31.70;87.50
18950;DHT22;9608;49.288;8.130;2023-06-10T14:40:04;32.00;86.10
18950;DHT22;9608;49.288;8.130;2023-06-10T14:42:31;31.60;90.10
18950;DHT22;9608;49.288;8.130;2023-06-10T14:44:58;31.00;88.80
18950;DHT22;9608;49.288;8.130;2023-06-10T14:47:25;30.50;91.10
18950;DHT22;9608;49.288;8.130;2023-06-10T14:49:51;30.10;90.10
18950;DHT22;9608;49.288;8.130;2023-06-10T14:52:18;29.70;91.40
18950;DHT22;9608;49.288;8.130;2023-06-10T14:54:45;29.80;90.90
18950;DHT22;9608;49.288;8.130;2023-06-10T14:57:13;30.00;91.40
18950;DHT22;9608;49.288;8.130;2023-06-10T14:59:40;29.90;90.60
18950;DHT22;9608;49.288;8.130;2023-06-10T15:02:06;30.00;90.40
18950;DHT22;9608;49.288;8.130;2023-06-10T15:04:33;29.90;90.30
18950;DHT22;9608;49.288;8.130;2023-06-10T15:07:00;29.60;91.00
18950;DHT22;9608;49.288;8.130;2023-06-10T15:09:27;29.80;92.40
18950;DHT22;9608;49.288;8.130;2023-06-10T15:11:53;29.90;92.00
18950;DHT22;9608;49.288;8.130;2023-06-10T15:14:21;30.00;91.60
18950;DHT22;9608;49.288;8.130;2023-06-10T15:16:48;29.90;90.70
18950;DHT22;9608;49.288;8.130;2023-06-10T15:19:15;30.00;90.90
18950;DHT22;9608;49.288;8.130;2023-06-10T15:21:41;29.70;90.20
18950;DHT22;9608;49.288;8.130;2023-06-10T15:24:09;29.80;91.00
18950;DHT22;9608;49.288;8.130;2023-06-10T15:26:35;30.10;91.90
18950;DHT22;9608;49.288;8.130;2023-06-10T15:29:02;30.50;91.00
18950;DHT22;9608;49.288;8.130;2023-06-10T15:31:31;30.50;90.40
18950;DHT22;9608;49.288;8.130;2023-06-10T15:33:58;30.70;90.40
18950;DHT22;9608;49.288;8.130;2023-06-10T15:36:25;30.70;90.40
18950;DHT22;9608;49.288;8.130;2023-06-10T15:38:52;30.80;90.80
18950;DHT22;9608;49.288;8.130;2023-06-10T15:41:19;30.80;90.60
18950;DHT22;9608;49.288;8.130;2023-06-10T15:43:46;30.70;90.90
18950;DHT22;9608;49.288;8.130;2023-06-10T15:46:12;30.10;90.90
18950;DHT22;9608;49.288;8.130;2023-06-10T15:48:40;29.90;90.40
18950;DHT22;9608;49.288;8.130;2023-06-10T15:51:07;30.10;90.30